Spalding, Minnesota
Current Conditions -  °F | °C
As of 12:47 AM on Monday 24 Nov 2014 (Local Time) from KHZX Reporting Station
Overcast Overcast  
Wind Chill: 23°   Ceiling: 500
Heat Index: 32°   Visibility: 10mi
Dew Point: 32°   Wind: 12mph
Humidity: 100%   Direction: 310°NW
Pressure: 29.32"   Gusts: 17mph
Location:  46.7232°N, 93.3159°W
Report Text: KHZX 240647Z AUTO 31010G15KT 10SM OVC005 00/00 A2932 RMK AO2
Loading
Personal Weather Stations






























Interactive Weather Map New forecast layout! Learn more

10-Day Weather Forecast

Advertisements
Track Severe Weather on mobile